Time;durP1;ratioP1;P1;durP2;ratioP2;P2;SDS_P1;SDS_P2;PMS_P1;PMS_P2;Temp;Humidity;BMP_temperature;BMP_pressure;BME280_temperature;BME280_humidity;BME280_pressure;Samples;Min_cycle;Max_cycle;Signal;HPM_P1;HPM_P2
2021/06/29 00:01:22;;;;;;;13.23;6.38;;;17.50;99.90;;;;;;5083342;28;20024;-63
2021/06/29 00:03:48;;;;;;;13.10;6.80;;;17.50;99.90;;;;;;5079540;28;20040;-63
2021/06/29 00:06:14;;;;;;;12.43;5.90;;;17.50;99.90;;;;;;5081865;28;20504;-64
2021/06/29 00:08:39;;;;;;;15.05;6.30;;;17.50;99.90;;;;;;5081331;28;20041;-63
2021/06/29 00:11:05;;;;;;;16.20;6.45;;;17.50;99.90;;;;;;5080642;28;20036;-63
2021/06/29 00:13:31;;;;;;;20.13;7.13;;;17.60;99.90;;;;;;5087806;28;20139;-64
2021/06/29 00:15:56;;;;;;;18.02;7.35;;;17.50;99.90;;;;;;5086453;28;20375;-63
2021/06/29 00:18:22;;;;;;;12.82;7.45;;;17.60;99.90;;;;;;5084924;28;20043;-63
2021/06/29 00:20:48;;;;;;;14.48;6.85;;;17.50;99.90;;;;;;5085291;28;20035;-63
2021/06/29 00:23:14;;;;;;;15.13;7.35;;;17.50;99.90;;;;;;5087152;28;20043;-63
2021/06/29 00:25:40;;;;;;;11.02;6.35;;;17.50;99.90;;;;;;5085273;28;20565;-63
2021/06/29 00:28:06;;;;;;;15.35;7.22;;;17.50;99.90;;;;;;5086958;28;20072;-63
2021/06/29 00:30:31;;;;;;;12.63;7.15;;;17.40;99.90;;;;;;5086930;28;20040;-63
2021/06/29 00:32:57;;;;;;;10.18;6.68;;;17.50;99.90;;;;;;5084794;28;22568;-64
2021/06/29 00:35:23;;;;;;;12.35;7.20;;;17.50;99.90;;;;;;5087069;28;20048;-63
2021/06/29 00:37:49;;;;;;;11.65;6.85;;;17.50;99.90;;;;;;5081116;28;20112;-63
2021/06/29 00:40:16;;;;;;;16.00;7.03;;;17.40;99.90;;;;;;5083177;28;20036;-63
2021/06/29 00:42:42;;;;;;;14.98;7.03;;;17.40;99.90;;;;;;5085425;28;20072;-64
2021/06/29 00:45:09;;;;;;;14.05;7.15;;;17.40;99.90;;;;;;5086491;28;20066;-63
2021/06/29 00:47:35;;;;;;;16.58;7.60;;;17.40;99.90;;;;;;5086040;28;20029;-63
2021/06/29 00:50:02;;;;;;;12.85;7.22;;;17.30;99.90;;;;;;5087476;28;20410;-63
2021/06/29 00:52:31;;;;;;;15.30;7.97;;;17.40;99.90;;;;;;5100340;28;20052;-63
2021/06/29 00:54:57;;;;;;;19.73;7.30;;;17.40;99.90;;;;;;5086172;28;20115;-63
2021/06/29 00:57:23;;;;;;;15.85;7.82;;;17.30;99.90;;;;;;5084745;28;20081;-63
2021/06/29 00:59:49;;;;;;;20.05;9.27;;;17.30;99.90;;;;;;5085116;28;20032;-63
2021/06/29 01:02:14;;;;;;;21.05;8.70;;;17.20;99.90;;;;;;5086713;28;20090;-63
2021/06/29 01:04:43;;;;;;;20.00;7.55;;;17.20;99.90;;;;;;5087254;28;20486;-63
2021/06/29 01:07:14;;;;;;;17.65;7.93;;;17.20;99.90;;;;;;5101678;28;20036;-63
2021/06/29 01:09:40;;;;;;;15.80;8.07;;;17.20;99.90;;;;;;5084137;28;20047;-63
2021/06/29 01:12:07;;;;;;;21.30;9.40;;;17.20;99.90;;;;;;5083390;28;20044;-63
2021/06/29 01:14:33;;;;;;;16.45;7.53;;;17.20;99.90;;;;;;5086588;28;20063;-63
2021/06/29 01:17:01;;;;;;;16.25;7.22;;;17.10;99.90;;;;;;5085837;28;20555;-63
2021/06/29 01:19:37;;;;;;;12.48;7.72;;;17.20;99.90;;;;;;5087162;28;20032;-63
2021/06/29 01:22:05;;;;;;;16.67;8.50;;;17.20;99.90;;;;;;5085261;28;20047;-63
2021/06/29 01:24:33;;;;;;;16.15;7.72;;;17.20;99.90;;;;;;5086378;28;20819;-63
2021/06/29 01:27:13;;;;;;;13.75;7.68;;;17.20;99.90;;;;;;5089097;28;20036;-63
2021/06/29 01:29:47;;;;;;;18.23;8.18;;;17.20;99.90;;;;;;5084726;28;20044;-63
2021/06/29 01:32:14;;;;;;;11.15;7.97;;;17.20;99.90;;;;;;5083696;28;20034;-63
2021/06/29 01:34:40;;;;;;;16.70;8.88;;;17.10;99.90;;;;;;5088132;28;20039;-63
2021/06/29 01:37:06;;;;;;;10.75;7.78;;;17.10;99.90;;;;;;5088273;28;20043;-63
2021/06/29 01:39:32;;;;;;;20.15;9.05;;;17.10;99.90;;;;;;5083818;28;20032;-63
2021/06/29 01:41:58;;;;;;;14.13;8.68;;;17.10;99.90;;;;;;5085788;28;20040;-63
2021/06/29 01:44:29;;;;;;;13.13;8.40;;;17.10;99.90;;;;;;5084827;28;20042;-63
2021/06/29 01:46:56;;;;;;;19.88;8.88;;;17.00;99.90;;;;;;5085526;28;20039;-63
2021/06/29 01:49:26;;;;;;;15.32;8.40;;;17.00;99.90;;;;;;5084365;28;20044;-63
2021/06/29 01:51:55;;;;;;;16.63;8.98;;;17.00;99.90;;;;;;5086179;28;20956;-63
2021/06/29 01:54:22;;;;;;;17.90;9.30;;;17.00;99.90;;;;;;5085542;28;20044;-63
2021/06/29 01:56:51;;;;;;;13.73;8.15;;;17.00;99.90;;;;;;5087085;28;20156;-63
2021/06/29 01:59:20;;;;;;;23.40;10.63;;;17.00;99.90;;;;;;5085932;28;20166;-63
2021/06/29 02:01:46;;;;;;;16.15;9.02;;;17.00;99.90;;;;;;5084501;28;20066;-63
2021/06/29 02:04:12;;;;;;;17.00;8.13;;;16.90;99.90;;;;;;5083708;28;20490;-63
2021/06/29 02:06:39;;;;;;;19.48;9.48;;;17.00;99.90;;;;;;5087243;28;20032;-63
2021/06/29 02:09:11;;;;;;;15.55;8.57;;;16.90;99.90;;;;;;5083185;28;21041;-63
2021/06/29 02:11:39;;;;;;;21.58;8.82;;;16.90;99.90;;;;;;5084705;28;20059;-63
2021/06/29 02:14:06;;;;;;;17.25;8.68;;;16.90;99.90;;;;;;5084290;28;20040;-63
2021/06/29 02:16:32;;;;;;;18.05;8.27;;;16.90;99.90;;;;;;5085014;28;20093;-63
2021/06/29 02:18:58;;;;;;;13.70;8.32;;;16.90;99.90;;;;;;5084819;28;20040;-63
2021/06/29 02:21:24;;;;;;;15.48;8.13;;;16.80;99.90;;;;;;5084694;28;20043;-63
2021/06/29 02:23:50;;;;;;;15.02;8.35;;;16.80;99.90;;;;;;5083876;28;20044;-63
2021/06/29 02:26:16;;;;;;;19.35;9.35;;;16.80;99.90;;;;;;5082376;28;20051;-63
2021/06/29 02:28:42;;;;;;;19.95;8.25;;;16.80;99.90;;;;;;5084336;28;20035;-63
2021/06/29 02:31:09;;;;;;;17.13;9.35;;;16.80;99.90;;;;;;5087588;28;20048;-63
2021/06/29 02:33:35;;;;;;;17.02;8.85;;;16.80;99.90;;;;;;5085641;28;20398;-63
2021/06/29 02:36:01;;;;;;;18.70;9.95;;;16.80;99.90;;;;;;5081485;28;20058;-63
2021/06/29 02:38:27;;;;;;;14.27;8.27;;;16.80;99.90;;;;;;5085171;28;20513;-63
2021/06/29 02:40:54;;;;;;;17.75;8.40;;;16.80;99.90;;;;;;5083564;28;20048;-63
2021/06/29 02:43:20;;;;;;;17.92;8.70;;;16.80;99.90;;;;;;5085251;28;20040;-63
2021/06/29 02:45:46;;;;;;;18.08;9.32;;;16.80;99.90;;;;;;5082876;28;20037;-63
2021/06/29 02:48:12;;;;;;;19.42;8.75;;;16.70;99.90;;;;;;5082740;28;20043;-63
2021/06/29 02:50:39;;;;;;;19.70;8.90;;;16.80;99.90;;;;;;5083482;28;20040;-63
2021/06/29 02:53:05;;;;;;;16.92;9.27;;;16.80;99.90;;;;;;5084604;28;20036;-63
2021/06/29 02:55:31;;;;;;;17.10;7.40;;;16.80;99.90;;;;;;5086548;28;20040;-63
2021/06/29 02:57:56;;;;;;;20.00;8.60;;;16.80;99.90;;;;;;5084102;28;20056;-63
2021/06/29 03:00:22;;;;;;;20.38;8.57;;;16.80;99.90;;;;;;5082264;28;20046;-63
2021/06/29 03:02:49;;;;;;;22.85;8.15;;;16.80;99.90;;;;;;5083868;28;20044;-63
2021/06/29 03:05:15;;;;;;;18.45;9.05;;;16.80;99.90;;;;;;5083958;28;20090;-63
2021/06/29 03:07:41;;;;;;;17.15;8.55;;;16.80;99.90;;;;;;5083560;28;20052;-63
2021/06/29 03:10:08;;;;;;;18.67;7.85;;;16.80;99.90;;;;;;5085080;28;20032;-63
2021/06/29 03:12:34;;;;;;;22.10;9.30;;;16.80;99.90;;;;;;5085828;28;20036;-63
2021/06/29 03:15:01;;;;;;;21.83;8.82;;;16.80;99.90;;;;;;5081364;28;20525;-63
2021/06/29 03:17:28;;;;;;;20.20;8.77;;;16.80;99.90;;;;;;5081006;28;20679;-63
2021/06/29 03:19:54;;;;;;;19.95;8.27;;;16.90;99.90;;;;;;5081479;28;20433;-63
2021/06/29 03:22:20;;;;;;;19.08;7.97;;;16.80;99.90;;;;;;5085074;28;20124;-63
2021/06/29 03:24:46;;;;;;;14.38;7.95;;;16.80;99.90;;;;;;5081548;28;20118;-63
2021/06/29 03:27:12;;;;;;;17.90;8.30;;;16.80;99.90;;;;;;5079747;28;20029;-63
2021/06/29 03:29:38;;;;;;;18.27;9.00;;;16.80;99.90;;;;;;5082999;28;20388;-63
2021/06/29 03:32:05;;;;;;;15.35;7.32;;;16.80;99.90;;;;;;5081855;28;20071;-63
2021/06/29 03:34:31;;;;;;;18.40;8.75;;;16.80;99.90;;;;;;5084399;28;20043;-63
2021/06/29 03:36:57;;;;;;;20.60;7.63;;;16.90;99.90;;;;;;5081865;28;20470;-63
2021/06/29 03:39:23;;;;;;;18.13;7.38;;;16.80;99.90;;;;;;5082074;28;20064;-63
2021/06/29 03:41:49;;;;;;;17.58;8.48;;;16.90;99.90;;;;;;5084216;28;20122;-63
2021/06/29 03:44:15;;;;;;;21.58;7.95;;;16.90;99.90;;;;;;5082951;28;20050;-63
2021/06/29 03:46:41;;;;;;;21.75;7.97;;;16.90;99.90;;;;;;5082356;28;20044;-63
2021/06/29 03:49:06;;;;;;;28.92;10.07;;;16.90;99.90;;;;;;5085791;28;20032;-63
2021/06/29 03:51:34;;;;;;;21.50;8.45;;;16.90;99.90;;;;;;5083380;28;20075;-63
2021/06/29 03:53:59;;;;;;;20.85;7.82;;;16.90;99.90;;;;;;5082731;28;20039;-63
2021/06/29 03:56:29;;;;;;;21.80;8.85;;;16.90;99.90;;;;;;5084888;28;20032;-63
2021/06/29 03:59:00;;;;;;;21.75;7.43;;;17.00;99.90;;;;;;5078995;28;20044;-63
2021/06/29 04:01:28;;;;;;;22.75;8.38;;;17.00;99.90;;;;;;5080575;28;20048;-63
2021/06/29 04:03:55;;;;;;;31.08;8.88;;;16.90;99.90;;;;;;5082066;28;20044;-63
2021/06/29 04:06:25;;;;;;;28.08;8.55;;;17.00;99.90;;;;;;5083753;28;20054;-63
2021/06/29 04:08:52;;;;;;;34.17;9.38;;;17.00;99.90;;;;;;5081262;28;20120;-63
2021/06/29 04:11:18;;;;;;;45.20;10.85;;;17.00;99.90;;;;;;5081791;28;20036;-63
2021/06/29 04:13:45;;;;;;;47.92;10.07;;;17.10;99.90;;;;;;5082046;28;20118;-63
2021/06/29 04:16:11;;;;;;;35.20;10.20;;;17.10;99.90;;;;;;5083344;28;20170;-63
2021/06/29 04:18:37;;;;;;;38.33;9.63;;;17.10;99.90;;;;;;5083294;28;20128;-63
2021/06/29 04:21:03;;;;;;;44.08;10.82;;;17.10;99.90;;;;;;5085447;28;20397;-63
2021/06/29 04:23:29;;;;;;;50.63;11.55;;;17.10;99.90;;;;;;5083187;28;20051;-63
2021/06/29 04:25:55;;;;;;;39.95;10.15;;;17.10;99.90;;;;;;5082431;28;20382;-63
2021/06/29 04:28:21;;;;;;;41.63;10.23;;;17.10;99.90;;;;;;5082186;28;20055;-63
2021/06/29 04:30:50;;;;;;;49.25;11.05;;;17.10;99.90;;;;;;5078757;28;20136;-63
2021/06/29 04:33:16;;;;;;;37.67;9.20;;;17.10;99.90;;;;;;5080864;28;20047;-63
2021/06/29 04:35:42;;;;;;;40.65;9.48;;;17.20;99.90;;;;;;5081410;28;20032;-63
2021/06/29 04:38:08;;;;;;;42.60;9.88;;;17.20;99.90;;;;;;5084395;28;20093;-63
2021/06/29 04:40:34;;;;;;;35.72;10.23;;;17.20;99.90;;;;;;5085098;28;20032;-63
2021/06/29 04:43:00;;;;;;;45.13;10.40;;;17.20;99.90;;;;;;5086429;28;20113;-63
2021/06/29 04:45:27;;;;;;;43.80;11.00;;;17.20;99.90;;;;;;5083589;28;20040;-63
2021/06/29 04:47:55;;;;;;;58.30;12.40;;;17.20;99.90;;;;;;5081512;28;20032;-63
2021/06/29 04:50:22;;;;;;;49.58;12.18;;;17.20;99.90;;;;;;5083316;28;20071;-63
2021/06/29 04:52:49;;;;;;;45.92;11.38;;;17.30;99.90;;;;;;5083220;28;20040;-63
2021/06/29 04:55:16;;;;;;;49.42;11.50;;;17.30;99.90;;;;;;5082708;28;20066;-63
2021/06/29 04:57:42;;;;;;;40.55;11.38;;;17.30;99.90;;;;;;5081748;28;20483;-64
2021/06/29 05:00:11;;;;;;;45.17;11.88;;;17.40;99.90;;;;;;5085787;28;20058;-65
2021/06/29 05:02:37;;;;;;;45.72;11.35;;;17.40;99.90;;;;;;5085437;28;20032;-65
2021/06/29 05:05:05;;;;;;;53.22;11.68;;;17.40;99.90;;;;;;5088340;28;20032;-65
2021/06/29 05:07:31;;;;;;;58.08;11.88;;;17.50;99.90;;;;;;5086660;28;20036;-65
2021/06/29 05:09:56;;;;;;;46.10;11.32;;;17.40;99.90;;;;;;5082531;28;20044;-65
2021/06/29 05:12:22;;;;;;;40.95;10.60;;;17.40;99.90;;;;;;5083643;28;20052;-65
2021/06/29 05:14:48;;;;;;;55.03;11.25;;;17.40;99.90;;;;;;5101852;28;20039;-65
2021/06/29 05:17:14;;;;;;;56.67;12.30;;;17.40;99.90;;;;;;5078155;28;20036;-65
2021/06/29 05:19:39;;;;;;;40.53;11.48;;;17.40;99.90;;;;;;5079780;28;20442;-65
2021/06/29 05:22:08;;;;;;;48.58;11.65;;;17.50;99.90;;;;;;5083783;28;20047;-65
2021/06/29 05:24:35;;;;;;;54.85;11.82;;;17.40;99.90;;;;;;5084741;28;20474;-64
2021/06/29 05:27:01;;;;;;;55.05;11.75;;;17.50;99.90;;;;;;5084805;28;20044;-64
2021/06/29 05:29:27;;;;;;;41.10;11.38;;;17.50;99.90;;;;;;5084171;28;20093;-64
2021/06/29 05:31:53;;;;;;;52.60;12.85;;;17.60;99.90;;;;;;5081352;28;20035;-65
2021/06/29 05:34:18;;;;;;;59.00;11.68;;;17.50;99.90;;;;;;5085019;28;20114;-64
2021/06/29 05:36:44;;;;;;;62.08;12.23;;;17.60;99.90;;;;;;5082092;28;20127;-64
2021/06/29 05:39:15;;;;;;;85.43;16.50;;;17.60;99.90;;;;;;5082571;28;20116;-65
2021/06/29 05:41:41;;;;;;;67.78;13.57;;;17.60;99.90;;;;;;5084287;28;20043;-65
2021/06/29 05:44:06;;;;;;;59.20;11.77;;;17.70;99.90;;;;;;5082674;28;20564;-65
2021/06/29 05:46:33;;;;;;;60.88;12.57;;;17.70;99.90;;;;;;5084912;28;20040;-65
2021/06/29 05:48:59;;;;;;;52.20;11.98;;;17.70;99.90;;;;;;5083017;28;20448;-65
2021/06/29 05:51:25;;;;;;;77.40;14.70;;;17.70;99.90;;;;;;5085114;28;20037;-65
2021/06/29 05:53:50;;;;;;;59.03;13.85;;;17.70;99.90;;;;;;5082193;28;20101;-64
2021/06/29 05:56:16;;;;;;;42.33;11.98;;;17.80;99.90;;;;;;5083200;28;20040;-65
2021/06/29 05:58:42;;;;;;;53.67;13.43;;;17.80;99.90;;;;;;5083053;28;20089;-65
2021/06/29 06:01:08;;;;;;;55.78;14.32;;;17.90;99.90;;;;;;5084445;28;20120;-65
2021/06/29 06:03:35;;;;;;;50.15;13.88;;;17.90;99.90;;;;;;5085066;28;20416;-65
2021/06/29 06:06:02;;;;;;;58.92;14.02;;;18.00;99.90;;;;;;5084888;28;20106;-65
2021/06/29 06:08:29;;;;;;;46.53;13.50;;;18.00;99.90;;;;;;5085956;28;20119;-65
2021/06/29 06:10:55;;;;;;;48.25;13.63;;;18.10;99.90;;;;;;5079378;28;20028;-65
2021/06/29 06:13:21;;;;;;;52.83;14.30;;;18.10;99.90;;;;;;5082720;28;20115;-65
2021/06/29 06:15:48;;;;;;;44.63;13.68;;;18.10;99.90;;;;;;5078634;28;20044;-65
2021/06/29 06:18:14;;;;;;;40.67;13.35;;;18.10;99.90;;;;;;5082367;28;20051;-65
2021/06/29 06:20:40;;;;;;;49.25;15.82;;;18.20;99.90;;;;;;5081800;28;20048;-65
2021/06/29 06:23:07;;;;;;;54.10;14.77;;;18.30;99.90;;;;;;5083389;28;20044;-65
2021/06/29 06:25:33;;;;;;;50.22;14.63;;;18.40;99.90;;;;;;5077584;28;20036;-65
2021/06/29 06:28:01;;;;;;;46.00;15.10;;;18.40;99.90;;;;;;5080596;28;20493;-65
2021/06/29 06:30:28;;;;;;;49.10;14.85;;;18.40;99.90;;;;;;5084346;28;20069;-66
2021/06/29 06:32:54;;;;;;;42.67;14.30;;;18.50;99.90;;;;;;5082269;28;20044;-65
2021/06/29 06:35:20;;;;;;;38.85;14.43;;;18.50;99.90;;;;;;5079624;28;20098;-65
2021/06/29 06:37:46;;;;;;;45.88;15.05;;;18.50;99.90;;;;;;5079292;28;20039;-66
2021/06/29 06:40:29;;;;;;;50.20;16.45;;;18.60;99.90;;;;;;5051684;28;20055;-66
2021/06/29 06:42:55;;;;;;;55.70;16.30;;;18.40;99.90;;;;;;5080190;28;20051;-65
2021/06/29 06:45:24;;;;;;;41.63;12.95;;;18.40;99.90;;;;;;5081668;28;20036;-65
2021/06/29 06:47:53;;;;;;;46.58;16.80;;;18.40;99.90;;;;;;5082963;28;20040;-65
2021/06/29 06:50:19;;;;;;;52.80;15.18;;;18.40;99.90;;;;;;5083364;28;20044;-65
2021/06/29 06:52:45;;;;;;;49.75;15.38;;;18.40;99.90;;;;;;5081886;28;20044;-65
2021/06/29 06:55:11;;;;;;;44.47;15.20;;;18.40;99.90;;;;;;5081051;28;20051;-65
2021/06/29 06:57:41;;;;;;;46.92;17.52;;;18.40;99.90;;;;;;5080584;28;20036;-66
2021/06/29 07:00:08;;;;;;;46.25;15.77;;;18.40;99.90;;;;;;5080328;28;20040;-65
2021/06/29 07:02:34;;;;;;;50.25;16.33;;;18.40;99.90;;;;;;5080572;28;20040;-65
2021/06/29 07:05:00;;;;;;;44.20;16.27;;;18.50;99.90;;;;;;5081159;28;20048;-65
2021/06/29 07:07:39;;;;;;;47.65;17.67;;;18.50;99.90;;;;;;5084505;28;20651;-65
2021/06/29 07:10:06;;;;;;;43.45;14.98;;;18.60;99.90;;;;;;5087805;28;20057;-65
2021/06/29 07:12:32;;;;;;;50.15;17.70;;;18.60;99.90;;;;;;5082906;28;21612;-65
2021/06/29 07:14:58;;;;;;;44.80;15.52;;;18.60;99.90;;;;;;5079304;28;20077;-65
2021/06/29 07:17:24;;;;;;;48.33;16.58;;;18.70;99.90;;;;;;5082320;28;20036;-66
2021/06/29 07:19:51;;;;;;;53.83;18.58;;;18.70;99.90;;;;;;5080822;28;20466;-66
2021/06/29 07:22:18;;;;;;;44.95;16.75;;;18.80;99.90;;;;;;5084162;28;20036;-66
2021/06/29 07:24:44;;;;;;;43.30;16.30;;;18.80;99.90;;;;;;5081503;28;20035;-66
2021/06/29 07:27:10;;;;;;;43.10;16.05;;;18.90;99.90;;;;;;5096969;28;20043;-66
2021/06/29 07:29:46;;;;;;;42.90;17.48;;;18.90;99.90;;;;;;5080849;28;20039;-65
2021/06/29 07:32:18;;;;;;;50.67;17.70;;;18.90;99.90;;;;;;5083418;28;20047;-65
2021/06/29 07:34:44;;;;;;;36.35;15.02;;;18.90;99.90;;;;;;5077054;28;20043;-65
2021/06/29 07:37:10;;;;;;;48.72;17.63;;;19.00;99.90;;;;;;5082244;28;20044;-65
2021/06/29 07:39:36;;;;;;;37.80;15.93;;;19.00;99.90;;;;;;5083073;28;20197;-66
2021/06/29 07:42:02;;;;;;;38.95;15.60;;;19.00;99.90;;;;;;5080410;28;20043;-66
2021/06/29 07:44:28;;;;;;;37.80;17.17;;;19.00;99.90;;;;;;5081317;28;20170;-65
2021/06/29 07:47:02;;;;;;;42.42;17.17;;;19.10;99.90;;;;;;5081657;28;20040;-66
2021/06/29 07:49:28;;;;;;;40.23;15.97;;;19.10;99.90;;;;;;5081732;28;20769;-66
2021/06/29 07:51:54;;;;;;;37.17;15.88;;;19.10;99.90;;;;;;5083332;28;20301;-65
2021/06/29 07:54:20;;;;;;;37.08;14.23;;;19.10;99.90;;;;;;5080435;28;20044;-66
2021/06/29 07:56:46;;;;;;;36.50;14.07;;;19.10;99.90;;;;;;5082175;28;20055;-66
2021/06/29 07:59:12;;;;;;;33.08;14.95;;;19.10;99.90;;;;;;5081049;28;20039;-66
2021/06/29 08:01:38;;;;;;;38.47;15.82;;;19.10;99.90;;;;;;5082744;28;20119;-66
2021/06/29 08:04:10;;;;;;;34.28;15.20;;;19.10;99.90;;;;;;5083956;28;20047;-65
2021/06/29 08:06:35;;;;;;;30.30;14.68;;;19.10;99.90;;;;;;5083982;28;20514;-65
2021/06/29 08:09:02;;;;;;;34.28;14.43;;;19.10;99.90;;;;;;5083775;28;20528;-65
2021/06/29 08:11:27;;;;;;;27.40;12.82;;;19.10;99.90;;;;;;5083847;28;20032;-65
2021/06/29 08:13:53;;;;;;;24.63;12.70;;;19.10;99.90;;;;;;5081255;28;20509;-66
2021/06/29 08:16:19;;;;;;;27.77;13.48;;;19.20;99.90;;;;;;5082753;28;20032;-66
2021/06/29 08:18:45;;;;;;;29.90;14.80;;;19.10;99.90;;;;;;5081150;28;20044;-65
2021/06/29 08:21:14;;;;;;;28.40;14.38;;;19.20;99.90;;;;;;5081691;28;20416;-65
2021/06/29 08:23:40;;;;;;;32.22;14.48;;;19.30;99.90;;;;;;5079973;28;20064;-66
2021/06/29 08:26:06;;;;;;;20.77;13.18;;;19.30;99.90;;;;;;5081258;28;20486;-66
2021/06/29 08:28:34;;;;;;;27.45;12.88;;;19.40;99.90;;;;;;5083004;28;20378;-66
2021/06/29 08:31:00;;;;;;;33.17;14.15;;;19.40;99.90;;;;;;5081738;28;20037;-65
2021/06/29 08:33:26;;;;;;;38.95;13.82;;;19.40;99.90;;;;;;5083292;28;20078;-66
2021/06/29 08:35:53;;;;;;;33.22;14.98;;;19.50;99.90;;;;;;5085009;28;20127;-66
2021/06/29 08:38:20;;;;;;;27.30;14.45;;;19.50;99.90;;;;;;5084654;28;20092;-65
2021/06/29 08:40:47;;;;;;;30.13;16.00;;;19.50;99.90;;;;;;5084498;28;20097;-66
2021/06/29 08:43:13;;;;;;;31.75;13.52;;;19.40;99.90;;;;;;5098761;28;20044;-65
2021/06/29 08:45:40;;;;;;;31.77;15.75;;;19.30;99.90;;;;;;5085610;28;20032;-66
2021/06/29 08:48:06;;;;;;;41.53;16.77;;;19.30;99.90;;;;;;5083709;28;20028;-66
2021/06/29 08:50:33;;;;;;;33.80;14.85;;;19.40;99.90;;;;;;5086722;28;20093;-66
2021/06/29 08:53:13;;;;;;;42.05;14.95;;;19.40;99.90;;;;;;5083758;28;20141;-66
2021/06/29 08:55:46;;;;;;;29.15;14.57;;;19.40;99.90;;;;;;5084192;28;20139;-66
2021/06/29 08:58:17;;;;;;;36.00;16.33;;;19.40;99.90;;;;;;5083747;28;20727;-66
2021/06/29 09:00:43;;;;;;;33.33;15.82;;;19.50;99.90;;;;;;5089594;28;20392;-66
2021/06/29 09:03:09;;;;;;;30.33;15.30;;;19.50;99.90;;;;;;5084996;28;20055;-66
2021/06/29 09:05:35;;;;;;;36.38;17.15;;;19.50;99.90;;;;;;5086510;28;20028;-66
2021/06/29 09:08:09;;;;;;;32.42;16.98;;;19.60;99.90;;;;;;5088131;28;20044;-66
2021/06/29 09:10:37;;;;;;;28.17;15.47;;;19.60;99.90;;;;;;5083955;28;20036;-66
2021/06/29 09:13:05;;;;;;;35.20;17.17;;;19.60;99.90;;;;;;5081520;28;20141;-66
2021/06/29 09:15:39;;;;;;;37.42;17.33;;;19.60;99.90;;;;;;5083413;28;20512;-66
2021/06/29 09:18:05;;;;;;;38.17;16.65;;;19.70;99.90;;;;;;5083225;28;20089;-66
2021/06/29 09:20:43;;;;;;;40.88;16.92;;;19.70;99.90;;;;;;5084725;28;20486;-66
2021/06/29 09:23:16;;;;;;;40.92;16.65;;;19.70;99.90;;;;;;5083030;28;20147;-66
2021/06/29 09:25:47;;;;;;;27.80;16.00;;;19.70;99.90;;;;;;5081701;28;20057;-66
2021/06/29 09:28:20;;;;;;;39.47;17.83;;;19.70;99.90;;;;;;5082146;28;20085;-66
2021/06/29 09:30:55;;;;;;;29.60;16.33;;;19.70;99.90;;;;;;5083106;28;20043;-66
2021/06/29 09:33:26;;;;;;;40.08;18.33;;;19.70;99.90;;;;;;5084705;28;20064;-66
2021/06/29 09:35:55;;;;;;;38.58;18.33;;;19.80;99.90;;;;;;5083056;28;20040;-66
2021/06/29 09:38:28;;;;;;;36.50;16.88;;;19.70;99.90;;;;;;5083409;28;20386;-67
2021/06/29 09:41:04;;;;;;;42.35;16.70;;;19.70;99.90;;;;;;5082510;28;20043;-66
2021/06/29 09:43:36;;;;;;;36.72;17.00;;;19.80;99.90;;;;;;5081129;28;20127;-66
2021/06/29 09:46:06;;;;;;;33.15;16.52;;;19.70;99.90;;;;;;5083587;28;20033;-66
2021/06/29 09:48:52;;;;;;;34.90;15.85;;;19.70;99.90;;;;;;5085640;28;20482;-66
2021/06/29 09:51:30;;;;;;;31.67;15.38;;;19.70;99.90;;;;;;5088166;28;20106;-66
2021/06/29 09:53:59;;;;;;;30.10;15.18;;;19.70;99.90;;;;;;5084842;28;20050;-66
2021/06/29 09:56:41;;;;;;;32.63;18.02;;;19.70;99.90;;;;;;5082863;28;20047;-66
2021/06/29 09:59:14;;;;;;;34.15;17.17;;;19.70;99.90;;;;;;5084036;28;20043;-66
2021/06/29 10:01:43;;;;;;;29.67;15.95;;;19.70;99.90;;;;;;5083467;28;20047;-67
2021/06/29 10:04:09;;;;;;;31.60;17.20;;;19.70;99.90;;;;;;5082830;28;20097;-66
2021/06/29 10:06:38;;;;;;;31.20;17.90;;;19.70;99.90;;;;;;5083642;28;20487;-66
2021/06/29 10:09:13;;;;;;;31.75;18.70;;;19.70;99.90;;;;;;5089520;28;20075;-66
2021/06/29 10:11:45;;;;;;;40.83;21.70;;;19.70;99.90;;;;;;5083079;28;20136;-66
2021/06/29 10:14:14;;;;;;;36.45;18.58;;;19.70;99.90;;;;;;5081177;28;20043;-66
2021/06/29 10:16:43;;;;;;;38.05;19.50;;;19.70;99.90;;;;;;5080820;28;20044;-66
2021/06/29 10:21:49;;;;;;;43.00;21.15;;;19.70;99.90;;;;;;5080560;28;20043;-66
2021/06/29 10:24:18;;;;;;;35.30;20.88;;;19.60;99.90;;;;;;5084050;28;20036;-66
2021/06/29 10:26:46;;;;;;;36.88;20.52;;;19.60;99.90;;;;;;5081655;28;20630;-66
2021/06/29 10:29:14;;;;;;;35.20;19.15;;;19.60;99.90;;;;;;5085157;28;20458;-66
2021/06/29 10:31:43;;;;;;;36.03;20.67;;;19.60;99.90;;;;;;5084605;28;20478;-65
2021/06/29 10:34:10;;;;;;;32.15;20.45;;;19.70;99.90;;;;;;5081715;28;20119;-66
2021/06/29 10:36:41;;;;;;;38.92;22.45;;;19.70;99.90;;;;;;5081733;28;20040;-66
2021/06/29 10:39:16;;;;;;;46.58;21.77;;;19.70;99.90;;;;;;5083511;28;20058;-66
2021/06/29 10:41:45;;;;;;;35.20;21.05;;;19.60;99.90;;;;;;5082369;28;20036;-66
2021/06/29 10:44:17;;;;;;;35.30;19.45;;;19.60;99.90;;;;;;5078594;28;20103;-66
2021/06/29 10:46:57;;;;;;;35.20;18.85;;;19.60;99.90;;;;;;5082608;28;20046;-66
2021/06/29 10:49:36;;;;;;;33.88;18.23;;;19.70;99.90;;;;;;5083844;28;20047;-66
2021/06/29 10:52:23;;;;;;;37.88;19.42;;;19.70;99.90;;;;;;5084058;28;20762;-66
2021/06/29 10:55:00;;;;;;;36.58;18.17;;;19.70;99.90;;;;;;5080799;28;20064;-67
2021/06/29 10:57:36;;;;;;;26.98;16.60;;;19.80;99.90;;;;;;5083130;28;20052;-66
2021/06/29 11:00:25;;;;;;;26.73;15.90;;;19.80;99.90;;;;;;5078646;28;20083;-66
2021/06/29 11:03:08;;;;;;;28.90;15.65;;;19.80;99.90;;;;;;5080021;28;20109;-66
2021/06/29 11:05:40;;;;;;;38.63;17.88;;;19.90;99.90;;;;;;5084195;28;20050;-66
2021/06/29 11:08:16;;;;;;;31.83;17.23;;;19.90;99.90;;;;;;5083315;28;20040;-67
2021/06/29 11:10:45;;;;;;;30.60;14.50;;;19.90;99.90;;;;;;5080947;28;20036;-66
2021/06/29 11:13:12;;;;;;;24.25;13.68;;;20.00;99.90;;;;;;5084188;28;20047;-66
2021/06/29 11:15:53;;;;;;;28.90;15.50;;;20.00;99.90;;;;;;5082549;28;20079;-66
2021/06/29 11:18:45;;;;;;;25.80;15.05;;;20.10;99.90;;;;;;5082358;28;20090;-66
2021/06/29 11:21:34;;;;;;;27.48;14.68;;;20.20;99.90;;;;;;5081133;28;20044;-66
2021/06/29 11:24:00;;;;;;;32.20;15.32;;;20.20;99.90;;;;;;5080808;28;20231;-66
2021/06/29 11:26:27;;;;;;;30.55;15.48;;;20.20;99.90;;;;;;5079454;28;20599;-66
2021/06/29 11:29:05;;;;;;;32.70;16.65;;;20.30;99.90;;;;;;5081499;28;20050;-66
2021/06/29 11:31:31;;;;;;;29.98;16.83;;;20.20;99.90;;;;;;5081983;28;20035;-66
2021/06/29 11:33:59;;;;;;;32.40;17.42;;;20.20;99.90;;;;;;5080445;28;20497;-66
2021/06/29 11:36:37;;;;;;;32.00;17.23;;;19.90;99.90;;;;;;5079705;28;20047;-66
2021/06/29 11:39:18;;;;;;;29.80;19.15;;;19.90;99.90;;;;;;5080909;28;20121;-66
2021/06/29 11:42:07;;;;;;;27.45;18.38;;;19.90;99.90;;;;;;5078943;28;20040;-66
2021/06/29 11:44:33;;;;;;;36.35;20.52;;;19.90;99.90;;;;;;5094480;28;20078;-66
2021/06/29 11:47:10;;;;;;;30.55;20.17;;;19.80;99.90;;;;;;5080509;28;21025;-66
2021/06/29 11:49:53;;;;;;;33.72;18.73;;;19.70;99.90;;;;;;5082061;28;20466;-66
2021/06/29 11:52:30;;;;;;;32.53;19.65;;;19.70;99.90;;;;;;5080352;28;20040;-66
2021/06/29 11:55:08;;;;;;;27.70;17.88;;;19.70;99.90;;;;;;5080776;28;20040;-66
2021/06/29 11:57:39;;;;;;;26.02;17.50;;;19.70;99.90;;;;;;5079912;28;20069;-66
2021/06/29 12:00:20;;;;;;;30.25;17.73;;;19.80;99.90;;;;;;5082109;28;20043;-66
2021/06/29 12:02:56;;;;;;;26.10;17.25;;;19.70;99.90;;;;;;5082446;28;20132;-67
2021/06/29 12:05:28;;;;;;;30.85;17.90;;;19.80;99.90;;;;;;5083404;28;20040;-66
2021/06/29 12:08:04;;;;;;;32.60;19.33;;;19.80;99.90;;;;;;5084000;28;20100;-66
2021/06/29 12:10:42;;;;;;;35.28;17.98;;;19.80;99.90;;;;;;5081360;28;20058;-66
2021/06/29 12:13:24;;;;;;;35.30;19.30;;;19.70;99.90;;;;;;5080856;28;20533;-66
2021/06/29 12:15:53;;;;;;;28.92;16.98;;;19.60;99.90;;;;;;5079824;28;20044;-66
2021/06/29 12:18:22;;;;;;;35.35;19.23;;;19.60;99.90;;;;;;5081142;28;20111;-66
2021/06/29 12:20:51;;;;;;;34.50;17.88;;;19.60;99.90;;;;;;5079595;28;20036;-66
2021/06/29 12:23:19;;;;;;;29.45;16.77;;;19.60;99.90;;;;;;5082702;28;20105;-66
2021/06/29 12:25:48;;;;;;;32.03;16.42;;;19.60;99.90;;;;;;5077708;28;20041;-66
2021/06/29 12:28:15;;;;;;;29.45;17.45;;;19.70;99.90;;;;;;5081140;28;20032;-66
2021/06/29 12:30:44;;;;;;;32.67;15.90;;;19.60;99.90;;;;;;5081055;28;20432;-66
2021/06/29 12:33:17;;;;;;;25.92;15.10;;;19.60;99.90;;;;;;5078913;28;20082;-66
2021/06/29 12:35:48;;;;;;;32.15;16.90;;;19.60;99.90;;;;;;5078756;28;20040;-66
2021/06/29 12:38:20;;;;;;;33.10;15.43;;;19.60;99.90;;;;;;5082426;28;20044;-66
2021/06/29 12:40:49;;;;;;;32.45;16.35;;;19.60;99.90;;;;;;5082700;28;20578;-66